Time;durP1;ratioP1;P1;durP2;ratioP2;P2;SDS_P1;SDS_P2;PMS_P1;PMS_P2;Temp;Humidity;BMP_temperature;BMP_pressure;BME280_temperature;BME280_humidity;BME280_pressure;Samples;Min_cycle;Max_cycle;Signal;HPM_P1;HPM_P2
2021/04/16 00:01:21;;;;;;;15.80;13.90;;;;;;;9.62;76.85;99984.39;1696731;82;22136;-71
2021/04/16 00:03:49;;;;;;;16.30;13.60;;;;;;;9.63;76.90;99987.85;1696196;84;21090;-70
2021/04/16 00:06:18;;;;;;;17.87;13.78;;;;;;;9.63;76.94;99982.52;1663384;85;21698;-70
2021/04/16 00:08:46;;;;;;;17.07;14.23;;;;;;;9.65;76.96;99983.60;1663145;86;21615;-71
2021/04/16 00:11:20;;;;;;;18.32;15.25;;;;;;;9.66;77.04;99985.20;1659528;84;21144;-72
2021/04/16 00:13:49;;;;;;;17.85;15.43;;;;;;;9.67;77.08;99984.13;1680750;84;21114;-71
2021/04/16 00:16:20;;;;;;;20.55;15.08;;;;;;;9.68;77.15;99981.20;1688587;83;21184;-70
2021/04/16 00:18:50;;;;;;;18.80;15.48;;;;;;;9.70;77.19;99985.72;1686299;83;21193;-70
2021/04/16 00:21:18;;;;;;;19.25;16.10;;;;;;;9.66;77.22;99981.98;1699207;83;21177;-69
2021/04/16 00:23:48;;;;;;;19.95;16.07;;;;;;;9.69;77.34;99988.67;1687781;83;21204;-69
2021/04/16 00:26:16;;;;;;;18.87;15.58;;;;;;;9.70;77.43;99987.59;1688972;83;21447;-69
2021/04/16 00:28:44;;;;;;;19.52;16.00;;;;;;;9.74;77.47;99988.66;1702702;84;21236;-70
2021/04/16 00:31:19;;;;;;;17.77;15.53;;;;;;;9.75;77.45;99985.74;1684898;82;21224;-71
2021/04/16 00:33:48;;;;;;;17.92;15.10;;;;;;;9.75;77.48;99984.95;1694603;83;21175;-69
2021/04/16 00:36:18;;;;;;;18.73;15.50;;;;;;;9.76;77.50;99988.67;1691952;84;21141;-68
2021/04/16 00:38:47;;;;;;;18.85;15.78;;;;;;;9.74;77.51;99991.33;1694860;83;23260;-68
2021/04/16 00:41:21;;;;;;;18.75;15.80;;;;;;;9.69;77.54;99980.67;1687848;82;21604;-69
2021/04/16 00:43:49;;;;;;;16.17;14.28;;;;;;;9.67;77.57;99990.25;1698890;84;21086;-69
2021/04/16 00:46:42;;;;;;;16.57;12.88;;;;;;;9.61;77.56;99990.00;1692066;84;21217;-69
2021/04/16 00:49:15;;;;;;;12.82;10.80;;;;;;;9.58;77.60;99993.19;1694924;83;21766;-70
2021/04/16 00:51:47;;;;;;;12.82;10.65;;;;;;;9.54;77.64;99991.59;1694388;82;22544;-69
2021/04/16 00:54:21;;;;;;;12.68;10.30;;;;;;;9.52;77.63;99986.24;1695495;84;21149;-70
2021/04/16 00:56:50;;;;;;;12.33;9.63;;;;;;;9.51;77.64;99992.62;1696036;84;21189;-69
2021/04/16 00:59:22;;;;;;;12.82;10.05;;;;;;;9.47;77.66;99991.02;1691532;84;21110;-71
2021/04/16 01:01:50;;;;;;;12.75;9.88;;;;;;;9.45;77.74;99995.03;1692893;82;21209;-70
2021/04/16 01:04:19;;;;;;;12.33;9.28;;;;;;;9.42;77.76;99992.35;1698343;83;21806;-68
2021/04/16 01:06:49;;;;;;;13.20;10.43;;;;;;;9.44;77.81;99992.87;1685729;83;21149;-70
2021/04/16 01:09:17;;;;;;;14.65;10.28;;;;;;;9.46;77.79;99992.63;1694799;84;21505;-69
2021/04/16 01:11:47;;;;;;;13.03;10.23;;;;;;;9.45;77.73;99993.70;1691607;82;21552;-71
2021/04/16 01:14:17;;;;;;;13.28;10.40;;;;;;;9.43;77.71;99992.61;1692558;83;21581;-70
2021/04/16 01:16:45;;;;;;;12.85;10.50;;;;;;;9.43;77.64;99991.28;1696606;83;21522;-71
2021/04/16 01:19:26;;;;;;;12.33;9.90;;;;;;;9.43;77.65;99993.14;1689687;84;21605;-70
2021/04/16 01:22:34;;;;;;;13.58;10.28;;;;;;;9.42;77.69;99991.02;1667789;82;21256;-71
2021/04/16 01:25:02;;;;;;;13.03;10.10;;;;;;;9.39;77.68;99991.00;1694304;84;21213;-69
2021/04/16 01:27:32;;;;;;;12.73;10.43;;;;;;;9.38;77.70;99989.95;1697176;83;21612;-69
2021/04/16 01:30:12;;;;;;;13.43;9.78;;;;;;;9.37;77.71;99986.99;1694181;84;21215;-69
2021/04/16 01:32:41;;;;;;;13.03;10.60;;;;;;;9.39;77.68;99987.00;1684442;83;21217;-69
2021/04/16 01:35:15;;;;;;;13.22;10.45;;;;;;;9.41;77.70;99989.42;1701731;84;21990;-68
2021/04/16 01:37:44;;;;;;;13.48;10.05;;;;;;;9.41;77.62;99982.77;1687173;84;21217;-68
2021/04/16 01:40:13;;;;;;;12.80;10.32;;;;;;;9.43;77.58;99982.48;1641480;86;21283;-69
2021/04/16 01:42:43;;;;;;;12.80;9.63;;;;;;;9.40;77.54;99983.80;1638897;85;21263;-69
2021/04/16 01:45:20;;;;;;;11.33;8.83;;;;;;;9.36;77.54;99983.53;1700235;83;21216;-69
2021/04/16 01:47:58;;;;;;;9.80;7.72;;;;;;;9.31;77.56;99980.88;1704029;83;21098;-70
2021/04/16 01:50:29;;;;;;;7.85;6.30;;;;;;;9.24;77.68;99985.62;1692523;84;21130;-68
2021/04/16 01:52:59;;;;;;;6.90;5.33;;;;;;;9.14;77.90;99982.39;1685586;82;21224;-69
2021/04/16 01:55:28;;;;;;;6.35;4.60;;;;;;;9.09;78.06;99982.39;1696965;83;21374;-71
2021/04/16 01:57:56;;;;;;;7.15;4.55;;;;;;;9.01;78.18;99982.88;1692318;84;21219;-68
2021/04/16 02:00:34;;;;;;;5.75;4.35;;;;;;;8.94;78.46;99978.32;1690195;83;21090;-69
2021/04/16 02:03:05;;;;;;;8.60;4.87;;;;;;;8.90;78.72;99981.23;1680364;82;21165;-68
2021/04/16 02:05:34;;;;;;;5.62;4.30;;;;;;;8.86;78.92;99980.16;1666665;85;21156;-70
2021/04/16 02:08:02;;;;;;;6.47;5.12;;;;;;;8.81;79.18;99980.13;1667681;84;21380;-69
2021/04/16 02:10:30;;;;;;;6.67;5.10;;;;;;;8.78;79.44;99982.77;1658120;86;21229;-69
2021/04/16 02:12:58;;;;;;;6.20;4.50;;;;;;;8.77;79.58;99980.38;1657199;86;21676;-69
2021/04/16 02:15:26;;;;;;;8.00;5.53;;;;;;;8.72;79.78;99969.19;1661927;86;21153;-69
2021/04/16 02:17:55;;;;;;;8.33;5.40;;;;;;;8.67;79.95;99983.79;1647845;85;21671;-68
2021/04/16 02:20:25;;;;;;;6.40;4.60;;;;;;;8.66;80.10;99976.88;1682533;84;21557;-68
2021/04/16 02:22:53;;;;;;;7.05;5.12;;;;;;;8.64;80.29;99974.45;1699529;84;21200;-69
2021/04/16 02:25:22;;;;;;;6.85;4.92;;;;;;;8.63;80.46;99978.18;1693625;84;21145;-68
2021/04/16 02:27:51;;;;;;;7.42;5.03;;;;;;;8.66;80.58;99976.33;1694441;83;21161;-69
2021/04/16 02:30:28;;;;;;;7.25;5.87;;;;;;;8.72;80.67;99976.34;1688637;84;21089;-69
2021/04/16 02:33:03;;;;;;;7.73;5.47;;;;;;;8.77;80.71;99981.70;1761848;79;22604;-69
2021/04/16 02:35:32;;;;;;;7.47;6.05;;;;;;;8.72;80.74;99975.02;1732203;81;21165;-69
2021/04/16 02:38:00;;;;;;;6.95;5.15;;;;;;;8.70;80.79;99981.94;1720614;82;22230;-69
2021/04/16 02:40:28;;;;;;;8.00;6.40;;;;;;;8.69;80.82;99986.47;1754018;79;21208;-68
2021/04/16 02:42:55;;;;;;;8.30;6.35;;;;;;;8.59;80.93;99982.42;1761682;81;22011;-69
2021/04/16 02:45:26;;;;;;;7.65;6.17;;;;;;;8.52;81.11;99987.15;1748705;81;21123;-68
2021/04/16 02:47:54;;;;;;;7.78;5.83;;;;;;;8.44;81.33;99987.64;1754372;81;21143;-68
2021/04/16 02:50:27;;;;;;;8.70;6.30;;;;;;;8.43;81.48;99984.19;1755081;81;21195;-70
2021/04/16 02:52:54;;;;;;;7.95;5.90;;;;;;;8.44;81.57;99982.32;1743264;81;21179;-69
2021/04/16 02:55:22;;;;;;;9.55;6.17;;;;;;;8.46;81.66;99980.22;1747053;79;21140;-69
2021/04/16 02:57:52;;;;;;;8.30;6.58;;;;;;;8.50;81.75;99981.83;1746624;81;21210;-69
2021/04/16 03:00:25;;;;;;;8.85;6.30;;;;;;;8.51;81.76;99986.09;1744162;81;21457;-69
2021/04/16 03:02:54;;;;;;;7.33;5.60;;;;;;;8.54;81.79;99984.24;1747367;81;21438;-69
2021/04/16 03:05:22;;;;;;;8.33;6.03;;;;;;;8.58;81.66;99983.46;1746015;79;21497;-68
2021/04/16 03:07:52;;;;;;;7.10;5.50;;;;;;;8.59;81.63;99986.42;1751361;81;21165;-69
2021/04/16 03:10:25;;;;;;;7.87;5.80;;;;;;;8.59;81.51;99983.76;1755730;81;21599;-69
2021/04/16 03:12:53;;;;;;;9.00;6.55;;;;;;;8.60;81.48;99983.22;1744101;81;21136;-69
2021/04/16 03:15:21;;;;;;;8.20;5.97;;;;;;;8.58;81.45;99984.00;1747015;79;22761;-69
2021/04/16 03:17:50;;;;;;;9.63;6.60;;;;;;;8.58;81.44;99980.80;1741540;81;21643;-69
2021/04/16 03:20:19;;;;;;;8.43;6.03;;;;;;;8.58;81.42;99986.66;1745055;81;21188;-69
2021/04/16 03:22:47;;;;;;;7.65;5.83;;;;;;;8.57;81.38;99979.20;1744405;81;21251;-69
2021/04/16 03:25:16;;;;;;;7.50;5.65;;;;;;;8.57;81.36;99980.54;1730872;81;21148;-70
2021/04/16 03:27:43;;;;;;;8.45;6.10;;;;;;;8.59;81.37;99982.95;1728774;82;21370;-67
2021/04/16 03:30:16;;;;;;;7.85;6.05;;;;;;;8.60;81.25;99982.69;1727933;82;21147;-69
2021/04/16 03:32:44;;;;;;;9.28;6.30;;;;;;;8.62;81.18;99985.08;1731503;82;21595;-70
2021/04/16 03:35:13;;;;;;;7.60;5.80;;;;;;;8.63;81.24;99986.17;1718805;82;21151;-70
2021/04/16 03:37:40;;;;;;;8.10;6.15;;;;;;;8.66;81.19;99979.53;1733547;82;21272;-70
2021/04/16 03:40:11;;;;;;;9.15;6.08;;;;;;;8.69;81.20;99989.13;1733533;82;21142;-69
2021/04/16 03:42:38;;;;;;;8.48;5.87;;;;;;;8.76;81.10;99990.77;1725698;82;21664;-69
2021/04/16 03:45:08;;;;;;;9.50;5.67;;;;;;;8.77;80.91;99989.70;1721574;82;21136;-69
2021/04/16 03:47:36;;;;;;;7.22;5.40;;;;;;;8.76;80.78;99989.44;1712775;82;21213;-68
2021/04/16 03:50:06;;;;;;;7.62;5.50;;;;;;;8.76;80.72;99994.77;1725748;81;21163;-70
2021/04/16 03:52:33;;;;;;;7.83;5.60;;;;;;;8.77;80.61;99985.70;1736436;82;21391;-69
2021/04/16 03:55:02;;;;;;;7.10;5.12;;;;;;;8.78;80.56;99990.75;1735067;82;21705;-68
2021/04/16 03:57:31;;;;;;;8.30;5.05;;;;;;;8.82;80.46;99995.06;1729298;82;21136;-69
2021/04/16 03:59:58;;;;;;;7.80;5.58;;;;;;;8.83;80.36;99997.45;1731314;82;21176;-68
2021/04/16 04:02:26;;;;;;;6.37;5.28;;;;;;;8.83;80.30;99997.98;1717725;82;21208;-69
2021/04/16 04:04:54;;;;;;;7.22;5.72;;;;;;;8.83;80.18;99998.78;1726647;81;21211;-70
2021/04/16 04:07:22;;;;;;;8.00;6.15;;;;;;;8.80;80.13;99998.50;1726125;82;21150;-68
2021/04/16 04:09:50;;;;;;;8.75;7.22;;;;;;;8.80;80.05;100002.50;1733654;82;21163;-68
2021/04/16 04:12:20;;;;;;;9.18;7.25;;;;;;;8.74;80.04;100007.52;1725262;82;21103;-69
2021/04/16 04:14:48;;;;;;;7.95;6.30;;;;;;;8.64;80.15;100003.73;1709026;82;21194;-69
2021/04/16 04:17:31;;;;;;;8.63;6.58;;;;;;;8.60;80.28;100003.98;1726143;81;21371;-70
2021/04/16 04:20:01;;;;;;;8.78;6.37;;;;;;;8.60;80.37;100003.19;1737141;82;21128;-71
2021/04/16 04:22:29;;;;;;;8.43;6.70;;;;;;;8.61;80.46;100001.58;1732893;82;21132;-69
2021/04/16 04:24:59;;;;;;;7.75;6.30;;;;;;;8.58;80.50;99999.44;1733238;82;21621;-69
2021/04/16 04:27:26;;;;;;;7.67;5.50;;;;;;;8.58;80.66;100007.42;1726513;81;22614;-69
2021/04/16 04:29:55;;;;;;;8.15;5.58;;;;;;;8.57;80.80;100007.69;1726675;82;21274;-69
2021/04/16 04:32:23;;;;;;;7.58;5.85;;;;;;;8.53;80.87;100008.73;1716672;82;21135;-71
2021/04/16 04:34:52;;;;;;;7.28;5.17;;;;;;;8.52;81.02;100003.12;1755080;80;21611;-69
2021/04/16 04:37:19;;;;;;;6.50;5.12;;;;;;;8.53;81.22;100010.59;1771586;79;21163;-68
2021/04/16 04:39:47;;;;;;;8.00;5.28;;;;;;;8.55;81.26;100009.26;1769584;80;21152;-69
2021/04/16 04:42:15;;;;;;;6.70;4.65;;;;;;;8.53;81.26;100010.59;1770399;80;21719;-69
2021/04/16 04:44:43;;;;;;;6.83;5.03;;;;;;;8.52;81.36;100008.44;1775936;80;21076;-70
2021/04/16 04:47:11;;;;;;;7.80;5.50;;;;;;;8.52;81.37;100015.09;1771634;80;21183;-69
2021/04/16 04:49:39;;;;;;;10.38;5.15;;;;;;;8.52;81.47;100016.96;1776036;80;21194;-69
2021/04/16 04:52:19;;;;;;;6.95;5.00;;;;;;;8.51;81.55;100010.84;1766981;80;21126;-69
2021/04/16 04:54:49;;;;;;;6.53;5.03;;;;;;;8.50;81.51;100010.58;1767617;80;21209;-69
2021/04/16 04:57:18;;;;;;;5.95;4.50;;;;;;;8.52;81.62;100015.09;1761571;79;21166;-69
2021/04/16 04:59:45;;;;;;;6.25;4.53;;;;;;;8.54;81.69;100012.98;1770056;80;21232;-68
2021/04/16 05:02:15;;;;;;;5.87;4.42;;;;;;;8.55;81.71;100011.92;1765802;80;21091;-70
2021/04/16 05:04:43;;;;;;;5.67;3.90;;;;;;;8.58;81.77;100012.74;1761529;80;21175;-69
2021/04/16 05:07:11;;;;;;;7.30;4.08;;;;;;;8.62;81.78;100010.37;1771941;79;21186;-69
2021/04/16 05:09:39;;;;;;;5.58;3.92;;;;;;;8.58;81.71;100009.28;1769247;80;21235;-69
2021/04/16 05:12:09;;;;;;;5.47;4.03;;;;;;;8.52;81.73;100008.44;1774975;80;21167;-69
2021/04/16 05:14:37;;;;;;;5.55;4.17;;;;;;;8.49;81.83;100012.97;1764247;80;21178;-68
2021/04/16 05:17:06;;;;;;;5.20;3.98;;;;;;;8.45;81.85;100009.20;1771247;79;21576;-68
2021/04/16 05:19:34;;;;;;;4.72;3.47;;;;;;;8.45;81.86;100006.53;1775481;79;21800;-69
2021/04/16 05:22:04;;;;;;;5.85;4.22;;;;;;;8.48;81.89;100003.90;1764483;80;21207;-69
2021/04/16 05:24:34;;;;;;;5.72;3.83;;;;;;;8.48;81.83;100011.88;1779543;80;21076;-70
2021/04/16 05:27:06;;;;;;;5.20;4.17;;;;;;;8.46;81.84;100006.83;1773831;80;21186;-69
2021/04/16 05:29:34;;;;;;;6.45;4.72;;;;;;;8.45;81.83;100010.53;1774561;79;21504;-68
2021/04/16 05:32:02;;;;;;;5.22;4.00;;;;;;;8.43;81.78;100006.02;1773451;80;21771;-69
2021/04/16 05:34:32;;;;;;;5.20;3.98;;;;;;;8.43;81.79;100004.68;1757039;80;21601;-69
2021/04/16 05:37:00;;;;;;;5.80;4.28;;;;;;;8.44;81.78;100009.73;1767863;80;21299;-69
2021/04/16 05:39:28;;;;;;;6.67;4.65;;;;;;;8.45;81.76;100009.20;1771672;80;21171;-68
2021/04/16 05:41:56;;;;;;;6.58;4.60;;;;;;;8.46;81.76;100008.16;1771359;80;21192;-68
2021/04/16 05:44:24;;;;;;;5.80;4.62;;;;;;;8.50;81.80;100009.25;1770062;80;21380;-69
2021/04/16 05:46:52;;;;;;;7.72;5.17;;;;;;;8.52;81.71;100008.97;1779025;80;21250;-68
2021/04/16 05:49:24;;;;;;;5.53;4.30;;;;;;;8.51;81.77;100009.51;1770419;80;21206;-69
2021/04/16 05:51:53;;;;;;;7.03;4.85;;;;;;;8.54;81.86;100012.20;1757068;80;21598;-68
2021/04/16 05:54:21;;;;;;;7.17;5.00;;;;;;;8.49;81.89;100011.64;1763186;80;21637;-68
2021/04/16 05:56:49;;;;;;;6.40;4.90;;;;;;;8.49;82.09;100015.64;1778885;80;21321;-69
2021/04/16 05:59:21;;;;;;;6.03;4.70;;;;;;;8.47;82.17;100016.41;1763068;79;21182;-70
2021/04/16 06:01:49;;;;;;;5.78;4.83;;;;;;;8.45;82.27;100015.32;1753005;80;21172;-69
2021/04/16 06:04:20;;;;;;;6.45;4.75;;;;;;;8.44;82.38;100014.26;1765980;80;21520;-68
2021/04/16 06:06:48;;;;;;;5.87;4.37;;;;;;;8.40;82.40;100017.96;1770397;80;21646;-69
2021/04/16 06:09:16;;;;;;;6.47;4.70;;;;;;;8.37;82.63;100018.44;1770284;80;21372;-71
2021/04/16 06:11:46;;;;;;;6.47;4.92;;;;;;;8.34;82.87;100020.81;1767078;80;21245;-69
2021/04/16 06:14:15;;;;;;;6.30;4.65;;;;;;;8.33;83.09;100019.22;1754795;80;21146;-69
2021/04/16 06:16:45;;;;;;;6.40;5.40;;;;;;;8.31;83.19;100019.45;1774657;80;21188;-69
2021/04/16 06:19:13;;;;;;;6.30;4.90;;;;;;;8.29;83.22;100020.25;1769289;79;21187;-70
2021/04/16 06:21:41;;;;;;;6.92;4.97;;;;;;;8.27;83.47;100025.02;1770237;80;21364;-70
2021/04/16 06:24:09;;;;;;;7.05;5.17;;;;;;;8.31;83.57;100022.11;1780079;80;21539;-69
2021/04/16 06:26:38;;;;;;;6.03;4.67;;;;;;;8.37;83.65;100016.31;1764852;80;21146;-70
2021/04/16 06:29:06;;;;;;;6.20;5.20;;;;;;;8.41;83.62;100019.55;1772293;79;21180;-71
2021/04/16 06:31:34;;;;;;;7.25;5.17;;;;;;;8.50;83.65;100022.55;1778797;80;21479;-70
2021/04/16 06:34:02;;;;;;;7.08;5.37;;;;;;;8.54;83.56;100024.17;1761761;80;21332;-69
2021/04/16 06:36:30;;;;;;;8.35;5.25;;;;;;;8.56;83.43;100026.06;1759031;80;21122;-69
2021/04/16 06:38:57;;;;;;;8.13;5.65;;;;;;;8.59;83.45;100029.02;1769782;79;21155;-70
2021/04/16 06:41:30;;;;;;;8.00;5.92;;;;;;;8.63;83.28;100030.63;1773578;80;21134;-69
2021/04/16 06:44:06;;;;;;;7.97;5.90;;;;;;;8.65;83.20;100027.98;1754236;80;21135;-69
2021/04/16 06:46:40;;;;;;;6.97;5.45;;;;;;;8.74;83.11;100030.16;1767143;80;22285;-69
2021/04/16 06:49:13;;;;;;;6.53;5.05;;;;;;;8.79;82.90;100037.65;1761991;80;21138;-69
2021/04/16 06:52:20;;;;;;;6.80;6.05;;;;;;;8.81;82.78;100040.04;1740241;80;21106;-68
2021/04/16 06:55:07;;;;;;;6.10;4.62;;;;;;;8.81;82.67;100042.17;1741746;80;21219;-69
2021/04/16 06:57:48;;;;;;;7.33;5.87;;;;;;;8.83;82.38;100045.92;1764818;80;21170;-69
2021/04/16 07:00:51;;;;;;;6.75;5.50;;;;;;;8.81;82.38;100042.17;1771904;80;22291;-69
2021/04/16 07:03:30;;;;;;;7.62;5.80;;;;;;;8.84;82.39;100043.52;1766163;80;21171;-67
2021/04/16 07:06:18;;;;;;;6.95;5.60;;;;;;;8.92;82.39;100036.39;1754782;80;21212;-69
2021/04/16 07:09:11;;;;;;;8.68;6.10;;;;;;;9.00;82.32;100045.20;1773562;80;21203;-69
2021/04/16 07:11:48;;;;;;;7.00;5.75;;;;;;;9.10;82.18;100044.46;1770034;80;21235;-69
2021/04/16 07:14:30;;;;;;;7.25;5.60;;;;;;;9.18;82.12;100040.48;1704806;83;21260;-69
2021/04/16 07:17:00;;;;;;;8.45;6.03;;;;;;;9.30;81.91;100045.88;1711610;82;21234;-69
2021/04/16 07:19:29;;;;;;;7.58;6.00;;;;;;;9.41;81.67;100044.06;1727141;82;21222;-69
2021/04/16 07:22:06;;;;;;;7.85;5.85;;;;;;;9.52;81.54;100047.02;1734237;82;21218;-69
2021/04/16 07:24:35;;;;;;;7.58;6.10;;;;;;;9.62;81.17;100041.72;1726713;82;21175;-70
2021/04/16 07:27:22;;;;;;;6.87;5.90;;;;;;;9.77;80.96;100046.80;1730246;82;21951;-70
2021/04/16 07:29:54;;;;;;;8.58;6.33;;;;;;;9.90;80.48;100046.83;1730433;81;21638;-69
2021/04/16 07:32:38;;;;;;;8.18;5.75;;;;;;;9.95;80.01;100044.98;1733786;82;21227;-69
2021/04/16 07:35:24;;;;;;;6.83;5.58;;;;;;;10.02;79.57;100041.52;1733596;82;21662;-69
2021/04/16 07:38:14;;;;;;;6.97;5.55;;;;;;;9.97;78.85;100048.20;1722884;82;21902;-70
2021/04/16 07:40:45;;;;;;;7.22;5.60;;;;;;;9.93;78.25;100046.30;1725248;82;22396;-69
2021/04/16 07:43:35;;;;;;;7.55;6.45;;;;;;;9.85;77.98;100049.77;1731473;82;21195;-69
2021/04/16 07:46:05;;;;;;;;;;;;;;;9.80;77.78;100049.75;1724410;82;22292;-70
2021/04/16 07:48:34;;;;;;;6.55;5.35;;;;;;;9.78;78.02;100049.77;1721712;82;20522;-68
2021/04/16 07:51:06;;;;;;;7.35;6.55;;;;;;;9.83;78.05;100051.89;1731244;81;21429;-70
2021/04/16 07:53:46;;;;;;;8.78;6.65;;;;;;;9.86;77.94;100050.56;1694561;83;21500;-69
2021/04/16 07:56:18;;;;;;;6.97;6.03;;;;;;;9.89;77.87;100061.24;1720441;82;21272;-68
2021/04/16 07:59:10;;;;;;;7.75;6.62;;;;;;;9.91;77.78;100059.12;1719707;82;21183;-69
2021/04/16 08:01:40;;;;;;;7.87;6.65;;;;;;;9.91;77.54;100059.92;1724986;81;21215;-68
2021/04/16 08:04:33;;;;;;;7.37;6.05;;;;;;;9.95;77.60;100060.98;1738471;82;21171;-70
2021/04/16 08:07:32;;;;;;;7.45;6.08;;;;;;;10.09;77.72;100054.59;1726018;82;21412;-69
2021/04/16 08:10:04;;;;;;;7.70;6.58;;;;;;;10.21;77.54;100052.47;1734750;82;21247;-68
2021/04/16 08:12:33;;;;;;;8.63;7.13;;;;;;;10.39;77.27;100055.70;1719157;82;21804;-69
2021/04/16 08:15:19;;;;;;;7.90;6.93;;;;;;;10.52;76.93;100053.28;1734069;82;21517;-69
2021/04/16 08:17:47;;;;;;;7.70;6.90;;;;;;;10.68;76.71;100055.95;1719143;82;21421;-69
2021/04/16 08:20:36;;;;;;;9.17;6.67;;;;;;;10.88;76.16;100055.90;1734480;81;21252;-69
2021/04/16 08:23:05;;;;;;;8.70;6.90;;;;;;;10.98;74.96;100053.20;1726652;81;21501;-69
2021/04/16 08:25:44;;;;;;;8.37;6.80;;;;;;;10.91;73.99;100057.23;1732412;82;21362;-69
2021/04/16 08:28:18;;;;;;;8.63;7.53;;;;;;;10.87;73.79;100056.98;1778055;80;21892;-69
2021/04/16 08:31:05;;;;;;;8.33;7.13;;;;;;;10.83;73.55;100053.80;1748152;80;21255;-69
2021/04/16 08:33:48;;;;;;;10.07;6.90;;;;;;;10.72;73.10;100059.12;1774302;80;21366;-69
2021/04/16 08:36:25;;;;;;;9.17;6.70;;;;;;;10.56;73.55;100066.39;1757503;80;21491;-70
2021/04/16 08:39:14;;;;;;;6.70;6.00;;;;;;;10.47;73.77;100061.85;1756832;80;21423;-70
2021/04/16 08:41:56;;;;;;;9.33;7.03;;;;;;;10.33;73.98;100057.05;1770237;79;21443;-69
2021/04/16 08:44:35;;;;;;;9.50;7.23;;;;;;;10.27;74.15;100056.78;1776573;79;23342;-70
2021/04/16 08:47:06;;;;;;;8.10;7.03;;;;;;;10.18;74.41;100059.68;1768137;79;21117;-71
2021/04/16 08:49:34;;;;;;;8.50;6.73;;;;;;;10.17;74.86;100062.59;1779052;80;22669;-71
2021/04/16 08:52:09;;;;;;;7.80;6.83;;;;;;;10.16;74.72;100057.00;1773586;80;21305;-70
2021/04/16 08:54:39;;;;;;;8.73;7.30;;;;;;;10.13;75.00;100062.87;1767847;80;21437;-69
2021/04/16 08:57:27;;;;;;;8.50;7.57;;;;;;;10.05;75.23;100064.20;1760569;79;21302;-70
2021/04/16 09:00:17;;;;;;;8.10;7.30;;;;;;;10.02;75.58;100071.41;1753459;79;21401;-72
2021/04/16 09:02:57;;;;;;;10.67;7.80;;;;;;;9.95;75.92;100066.32;1757478;80;21459;-70
2021/04/16 09:05:36;;;;;;;8.07;6.23;;;;;;;9.97;76.20;100066.88;1748048;80;21373;-71
2021/04/16 09:08:11;;;;;;;;;;;;;;;10.06;76.43;100069.80;1761603;80;21348;-71
2021/04/16 09:10:43;;;;;;;10.10;7.37;;;;;;;10.04;76.31;100071.41;1745102;82;20612;-69
2021/04/16 09:13:43;;;;;;;10.70;7.90;;;;;;;10.01;76.29;100081.28;1773473;79;21112;-72
2021/04/16 09:16:21;;;;;;;7.87;6.60;;;;;;;9.95;76.17;100068.99;1778475;79;21386;-69
2021/04/16 09:18:53;;;;;;;8.07;7.07;;;;;;;9.93;76.68;100075.11;1754612;81;21837;-71
2021/04/16 09:21:28;;;;;;;9.40;7.43;;;;;;;9.98;76.77;100078.34;1774888;79;22204;-71
2021/04/16 09:24:01;;;;;;;9.60;7.67;;;;;;;10.09;77.00;100075.41;1772619;79;21388;-71
2021/04/16 09:26:50;;;;;;;12.53;8.48;;;;;;;10.19;76.76;100066.61;1772291;79;21353;-71
2021/04/16 09:29:38;;;;;;;8.13;6.67;;;;;;;10.27;76.80;100068.80;1760715;80;21566;-70
2021/04/16 09:32:32;;;;;;;7.07;6.37;;;;;;;10.40;76.45;100068.80;1778800;79;22031;-71
2021/04/16 09:35:29;;;;;;;8.40;7.17;;;;;;;10.43;75.76;100068.77;1767136;79;22726;-68
2021/04/16 09:38:56;;;;;;;8.23;7.43;;;;;;;10.31;75.84;100067.19;1733643;82;21531;-68
2021/04/16 09:41:31;;;;;;;8.43;6.90;;;;;;;10.33;76.49;100072.24;1776898;80;21313;-69
2021/04/16 09:44:02;;;;;;;8.00;7.07;;;;;;;10.26;76.25;100075.17;1755736;79;21263;-68
2021/04/16 09:46:38;;;;;;;8.50;6.72;;;;;;;10.21;76.30;100072.49;1766393;81;21488;-69
2021/04/16 09:49:27;;;;;;;8.17;6.87;;;;;;;10.16;76.10;100072.47;1747342;81;21163;-69
2021/04/16 09:51:59;;;;;;;9.03;7.60;;;;;;;10.14;76.38;100067.16;1745809;79;21415;-69
2021/04/16 09:54:38;;;;;;;8.43;7.53;;;;;;;10.18;76.60;100070.89;1741292;81;22685;-68
2021/04/16 09:57:12;;;;;;;8.07;6.27;;;;;;;10.32;76.86;100069.31;1754580;81;21347;-68
2021/04/16 09:59:45;;;;;;;8.90;6.93;;;;;;;10.52;76.56;100071.97;1766025;81;21444;-69
2021/04/16 10:02:33;;;;;;;10.68;7.10;;;;;;;10.62;76.02;100071.16;1755077;79;21384;-69
2021/04/16 10:05:28;;;;;;;8.77;6.77;;;;;;;10.67;75.29;100065.83;1763268;81;21163;-69
2021/04/16 10:08:02;;;;;;;9.27;7.77;;;;;;;10.76;75.11;100072.23;1747612;81;22218;-66
2021/04/16 10:10:42;;;;;;;7.03;5.97;;;;;;;10.82;74.82;100067.66;1768323;81;21502;-69
2021/04/16 10:13:23;;;;;;;6.40;5.40;;;;;;;10.93;74.39;100064.45;1764374;79;21810;-69
2021/04/16 10:15:55;;;;;;;6.97;6.25;;;;;;;10.94;73.42;100064.17;1804077;79;21487;-69
2021/04/16 10:18:35;;;;;;;7.60;5.83;;;;;;;10.95;73.23;100067.64;1800989;79;21666;-68
2021/04/16 10:21:20;;;;;;;7.23;6.03;;;;;;;11.01;73.37;100066.56;1808883;79;21437;-69
2021/04/16 10:55:47;;;;;;;6.70;5.87;;;;;;;11.23;71.87;100078.27;1713648;82;21291;-72
2021/04/16 12:39:52;;;;;;;15.05;11.35;;;;;;;10.30;72.19;100078.94;1787832;77;21690;-67
2021/04/16 12:42:19;;;;;;;14.30;11.57;;;;;;;10.30;72.46;100080.81;1783830;79;21202;-69
2021/04/16 12:44:53;;;;;;;16.25;11.83;;;;;;;10.30;72.90;100078.14;1802841;77;22545;-71
2021/04/16 12:47:33;;;;;;;14.97;12.53;;;;;;;10.29;73.19;100077.86;1777420;79;21203;-71
2021/04/16 12:50:02;;;;;;;14.33;12.03;;;;;;;10.28;73.45;100077.59;1792053;79;21806;-72
2021/04/16 12:52:30;;;;;;;14.68;11.73;;;;;;;10.28;73.58;100078.39;1796571;79;21669;-73
2021/04/16 12:54:57;;;;;;;16.33;13.20;;;;;;;10.24;73.55;100078.63;1809420;79;21120;-72
2021/04/16 12:57:44;;;;;;;16.95;13.20;;;;;;;10.21;73.71;100077.03;1798386;77;21816;-72
2021/04/16 13:00:25;;;;;;;18.45;13.30;;;;;;;10.20;73.79;100074.08;1799496;77;21159;-73
2021/04/16 13:03:09;;;;;;;18.67;14.20;;;;;;;10.20;73.99;100072.74;1802436;79;21080;-75
2021/04/16 13:05:38;;;;;;;16.95;14.15;;;;;;;10.19;74.12;100081.83;1772969;77;21213;-72
2021/04/16 13:08:06;;;;;;;14.63;12.47;;;;;;;10.18;74.07;100076.23;1794695;79;21183;-73
2021/04/16 13:10:34;;;;;;;16.10;14.45;;;;;;;10.12;73.81;100079.42;1796935;77;22424;-73
2021/04/16 13:13:03;;;;;;;17.85;14.18;;;;;;;10.03;73.87;100080.46;1794731;77;22338;-73
2021/04/16 13:15:31;;;;;;;17.65;14.63;;;;;;;9.99;74.03;100083.94;1789421;79;21674;-73
2021/04/16 13:18:03;;;;;;;16.80;15.00;;;;;;;9.98;74.05;100074.34;1797632;79;21083;-73
2021/04/16 13:20:31;;;;;;;20.12;15.48;;;;;;;10.01;74.17;100082.61;1796929;77;22295;-75
2021/04/16 13:22:59;;;;;;;18.35;15.30;;;;;;;10.02;74.35;100082.08;1798736;79;22660;-74
2021/04/16 13:25:29;;;;;;;16.80;14.90;;;;;;;10.04;74.55;100078.62;1794226;79;21167;-75
2021/04/16 13:27:57;;;;;;;16.80;14.73;;;;;;;10.10;74.71;100084.20;1744606;80;21102;-74
2021/04/16 13:30:29;;;;;;;17.92;15.65;;;;;;;10.16;74.80;100083.69;1753458;79;21191;-75
2021/04/16 13:33:04;;;;;;;17.25;14.78;;;;;;;10.17;75.02;100075.44;1749741;81;21194;-77
2021/04/16 13:35:40;;;;;;;16.62;14.85;;;;;;;10.19;75.19;100079.95;1749942;81;21793;-75
2021/04/16 13:38:21;;;;;;;17.48;14.73;;;;;;;10.20;75.22;100078.91;1730038;81;21189;-76
2021/04/16 13:40:49;;;;;;;16.02;14.35;;;;;;;10.22;75.41;100074.63;1745192;79;21076;-75
2021/04/16 13:43:17;;;;;;;18.15;15.32;;;;;;;10.21;75.64;100085.04;1762143;81;21611;-75
2021/04/16 13:45:46;;;;;;;16.60;14.85;;;;;;;10.17;76.12;100082.61;1751934;79;21135;-76
2021/04/16 13:48:13;;;;;;;18.77;16.50;;;;;;;10.15;76.67;100084.23;1752347;79;22106;-68
2021/04/16 13:50:42;;;;;;;16.77;15.08;;;;;;;10.09;77.31;100092.75;1752336;81;21210;-68
2021/04/16 13:53:11;;;;;;;20.88;16.00;;;;;;;10.05;77.83;100090.34;1792074;79;21168;-68
2021/04/16 13:55:38;;;;;;;19.45;16.25;;;;;;;10.01;78.36;100094.63;1799229;77;21259;-69
2021/04/16 13:58:06;;;;;;;19.10;16.70;;;;;;;9.96;78.66;100095.13;1792921;77;21211;-69
2021/04/16 14:00:36;;;;;;;20.25;16.25;;;;;;;9.97;78.89;100094.89;1799651;77;21373;-69
2021/04/16 14:03:25;;;;;;;22.80;17.45;;;;;;;10.02;78.96;100095.41;1807177;79;21119;-69
2021/04/16 14:05:54;;;;;;;22.02;18.85;;;;;;;10.02;79.06;100088.20;1790127;77;21199;-69
2021/04/16 14:08:38;;;;;;;20.27;17.27;;;;;;;10.04;79.10;100090.09;1796251;77;21276;-68
2021/04/16 14:11:06;;;;;;;21.00;18.73;;;;;;;10.07;79.22;100090.10;1785825;79;21164;-68